Time;durP1;ratioP1;P1;durP2;ratioP2;P2;SDS_P1;SDS_P2;PMS_P1;PMS_P2;Temp;Humidity;BMP_temperature;BMP_pressure;BME280_temperature;BME280_humidity;BME280_pressure;Samples;Min_cycle;Max_cycle;Signal;HPM_P1;HPM_P2
2024/03/01 00:01:56;;;;;;;13.38;10.30;;;;;;;;;;5004547;28;25048;-67
2024/03/01 00:04:22;;;;;;;9.63;8.65;;;;;;;;;;4995398;28;25063;-67
2024/03/01 00:06:48;;;;;;;11.55;10.35;;;;;;;;;;5008586;28;25047;-68
2024/03/01 00:09:15;;;;;;;9.95;8.95;;;;;;;;;;5007987;28;25068;-66
2024/03/01 00:11:41;;;;;;;12.20;8.90;;;;;;;;;;5011742;28;25110;-66
2024/03/01 00:14:07;;;;;;;9.98;8.98;;;;;;;;;;4992964;28;25043;-66
2024/03/01 00:16:33;;;;;;;10.18;9.07;;;;;;;;;;4998391;28;25148;-66
2024/03/01 00:18:59;;;;;;;9.65;8.65;;;;;;;;;;4989195;28;25076;-66
2024/03/01 00:21:26;;;;;;;10.93;9.82;;;;;;;;;;5002609;28;25054;-66
2024/03/01 00:23:52;;;;;;;11.13;10.05;;;;;;;;;;5001533;28;25155;-67
2024/03/01 00:26:18;;;;;;;9.25;8.35;;;;;;;;;;4999306;28;25051;-68
2024/03/01 00:28:44;;;;;;;9.27;8.23;;;;;;;;;;5003582;28;25041;-67
2024/03/01 00:31:10;;;;;;;10.95;8.77;;;;;;;;;;4997154;28;25062;-65
2024/03/01 00:33:36;;;;;;;8.88;8.07;;;;;;;;;;5005317;28;25051;-68
2024/03/01 00:36:03;;;;;;;10.23;7.88;;;;;;;;;;5002015;28;25080;-68
2024/03/01 00:38:29;;;;;;;12.40;9.05;;;;;;;;;;4991557;28;25154;-67
2024/03/01 00:40:55;;;;;;;10.98;9.25;;;;;;;;;;5001524;28;25065;-66
2024/03/01 00:43:21;;;;;;;11.13;8.05;;;;;;;;;;5001380;28;25094;-66
2024/03/01 00:45:47;;;;;;;8.27;7.35;;;;;;;;;;5000774;28;25159;-66
2024/03/01 00:48:15;;;;;;;8.43;7.55;;;;;;;;;;5005814;28;25061;-65
2024/03/01 00:50:41;;;;;;;8.65;7.55;;;;;;;;;;5001868;28;25054;-67
2024/03/01 00:53:11;;;;;;;9.65;8.75;;;;;;;;;;4998308;28;25079;-67
2024/03/01 00:55:38;;;;;;;9.18;8.32;;;;;;;;;;4999786;28;25096;-69
2024/03/01 00:58:04;;;;;;;9.35;7.75;;;;;;;;;;4999104;28;25059;-70
2024/03/01 01:00:31;;;;;;;9.38;7.45;;;;;;;;;;5021612;28;25068;-70
2024/03/01 01:02:57;;;;;;;9.50;8.60;;;;;;;;;;5012153;28;25071;-70
2024/03/01 01:05:23;;;;;;;8.27;7.47;;;;;;;;;;5015908;28;25103;-70
2024/03/01 01:07:50;;;;;;;8.50;7.70;;;;;;;;;;5012315;28;25105;-71
2024/03/01 01:10:16;;;;;;;8.55;7.65;;;;;;;;;;5005876;28;25070;-69
2024/03/01 01:12:42;;;;;;;7.60;6.80;;;;;;;;;;5006565;28;25071;-69
2024/03/01 01:15:08;;;;;;;7.95;7.20;;;;;;;;;;4999248;28;26148;-73
2024/03/01 01:17:34;;;;;;;8.32;7.53;;;;;;;;;;4995957;28;25172;-70
2024/03/01 01:20:00;;;;;;;8.10;7.30;;;;;;;;;;5001725;28;25067;-71
2024/03/01 01:22:26;;;;;;;10.95;8.07;;;;;;;;;;5006715;28;25052;-69
2024/03/01 01:24:53;;;;;;;10.55;7.65;;;;;;;;;;5003903;28;25057;-68
2024/03/01 01:27:19;;;;;;;9.52;7.22;;;;;;;;;;5008875;28;25105;-70
2024/03/01 01:29:46;;;;;;;7.30;6.68;;;;;;;;;;5005432;28;25057;-71
2024/03/01 01:32:12;;;;;;;7.57;6.78;;;;;;;;;;5002615;28;25073;-71
2024/03/01 01:34:38;;;;;;;8.00;7.20;;;;;;;;;;4987448;28;25065;-69
2024/03/01 01:37:04;;;;;;;11.40;6.93;;;;;;;;;;5004543;28;25114;-68
2024/03/01 01:39:33;;;;;;;10.55;6.97;;;;;;;;;;5000554;28;25049;-70
2024/03/01 01:41:59;;;;;;;8.13;7.32;;;;;;;;;;5003545;28;25049;-69
2024/03/01 01:44:25;;;;;;;7.90;7.18;;;;;;;;;;4990312;28;25092;-70
2024/03/01 01:46:51;;;;;;;14.43;8.00;;;;;;;;;;5002202;28;25065;-68
2024/03/01 01:49:18;;;;;;;7.97;7.18;;;;;;;;;;4995890;28;25157;-69
2024/03/01 01:51:45;;;;;;;9.73;8.73;;;;;;;;;;4995009;28;25117;-68
2024/03/01 01:54:11;;;;;;;12.18;8.63;;;;;;;;;;4999489;28;25056;-69
2024/03/01 01:56:37;;;;;;;8.05;7.25;;;;;;;;;;5004148;28;25062;-70
2024/03/01 01:59:04;;;;;;;9.95;7.97;;;;;;;;;;4993640;28;25050;-70
2024/03/01 02:01:30;;;;;;;8.45;7.45;;;;;;;;;;4998317;28;25085;-69
2024/03/01 02:03:56;;;;;;;9.77;7.25;;;;;;;;;;5000511;28;25055;-69
2024/03/01 02:06:22;;;;;;;9.55;7.55;;;;;;;;;;4999221;28;25068;-67
2024/03/01 02:08:48;;;;;;;8.85;7.95;;;;;;;;;;5000759;28;25058;-68
2024/03/01 02:11:14;;;;;;;9.60;6.43;;;;;;;;;;4996112;28;25086;-71
2024/03/01 02:13:40;;;;;;;10.63;8.10;;;;;;;;;;5000784;28;25074;-69
2024/03/01 02:16:06;;;;;;;9.13;7.65;;;;;;;;;;5007522;28;25129;-68
2024/03/01 02:18:33;;;;;;;8.68;7.78;;;;;;;;;;4996302;28;24856;-70
2024/03/01 02:21:05;;;;;;;9.15;8.25;;;;;;;;;;5000274;28;25057;-68
2024/03/01 02:23:31;;;;;;;9.02;6.13;;;;;;;;;;5001492;28;25068;-71
2024/03/01 02:25:58;;;;;;;11.43;5.78;;;;;;;;;;4996509;28;25147;-71
2024/03/01 02:28:24;;;;;;;10.65;5.43;;;;;;;;;;4996532;28;25118;-69
2024/03/01 02:30:53;;;;;;;14.77;6.03;;;;;;;;;;5006667;28;25107;-71
2024/03/01 02:33:20;;;;;;;17.23;5.43;;;;;;;;;;4989014;28;25061;-71
2024/03/01 02:35:46;;;;;;;11.63;4.95;;;;;;;;;;4999762;28;25068;-71
2024/03/01 02:38:13;;;;;;;12.68;4.70;;;;;;;;;;5004713;28;25094;-70
2024/03/01 02:40:39;;;;;;;13.75;4.45;;;;;;;;;;4992234;28;25070;-72
2024/03/01 02:43:08;;;;;;;11.90;4.45;;;;;;;;;;4999180;28;25057;-71
2024/03/01 02:45:35;;;;;;;14.60;4.68;;;;;;;;;;5002048;28;25051;-71
2024/03/01 02:48:01;;;;;;;8.32;4.55;;;;;;;;;;4997161;28;25077;-69
2024/03/01 02:50:27;;;;;;;10.13;3.50;;;;;;;;;;4999551;28;25064;-71
2024/03/01 02:52:53;;;;;;;12.40;4.30;;;;;;;;;;5001785;28;25059;-71
2024/03/01 02:55:22;;;;;;;6.05;3.85;;;;;;;;;;5005554;28;25110;-71
2024/03/01 02:57:49;;;;;;;6.43;3.78;;;;;;;;;;5007272;28;25146;-70
2024/03/01 03:00:15;;;;;;;6.70;4.30;;;;;;;;;;4987960;28;25134;-68
2024/03/01 03:02:41;;;;;;;4.45;2.28;;;;;;;;;;4990335;28;25070;-70
2024/03/01 03:05:08;;;;;;;3.42;1.75;;;;;;;;;;5000405;28;25055;-69
2024/03/01 03:07:34;;;;;;;5.63;2.28;;;;;;;;;;5003937;28;25096;-71
2024/03/01 03:10:00;;;;;;;4.43;1.80;;;;;;;;;;5008603;28;25072;-71
2024/03/01 03:12:26;;;;;;;3.65;2.50;;;;;;;;;;4984881;28;25113;-68
2024/03/01 03:14:53;;;;;;;6.88;3.40;;;;;;;;;;5005441;28;25087;-69
2024/03/01 03:17:19;;;;;;;8.13;4.13;;;;;;;;;;5034073;28;25087;-71
2024/03/01 03:19:45;;;;;;;7.22;4.07;;;;;;;;;;5031509;28;25080;-69
2024/03/01 03:22:12;;;;;;;8.50;3.78;;;;;;;;;;5014975;28;25083;-69
2024/03/01 03:24:38;;;;;;;6.97;4.05;;;;;;;;;;5013803;28;25056;-69
2024/03/01 03:27:05;;;;;;;7.53;4.07;;;;;;;;;;5009579;28;25049;-71
2024/03/01 03:29:31;;;;;;;8.57;4.32;;;;;;;;;;5012209;28;25090;-69
2024/03/01 03:31:57;;;;;;;7.75;3.80;;;;;;;;;;5012092;28;25066;-69
2024/03/01 03:34:23;;;;;;;9.13;3.90;;;;;;;;;;5013549;28;25047;-70
2024/03/01 03:36:49;;;;;;;4.68;3.83;;;;;;;;;;5013138;28;25179;-68
2024/03/01 03:39:15;;;;;;;6.18;4.15;;;;;;;;;;5007253;28;25136;-70
2024/03/01 03:41:42;;;;;;;6.25;5.07;;;;;;;;;;5009451;28;25069;-70
2024/03/01 03:44:08;;;;;;;5.75;3.83;;;;;;;;;;5006995;28;25136;-69
2024/03/01 03:46:35;;;;;;;6.35;3.13;;;;;;;;;;5013971;28;25075;-69
2024/03/01 03:49:01;;;;;;;6.40;2.20;;;;;;;;;;5015278;28;25091;-71
2024/03/01 03:51:28;;;;;;;6.07;1.80;;;;;;;;;;5002095;28;25102;-69
2024/03/01 03:53:57;;;;;;;4.28;1.88;;;;;;;;;;5018089;28;25058;-68
2024/03/01 03:56:23;;;;;;;7.70;2.08;;;;;;;;;;5002793;28;25077;-70
2024/03/01 03:58:49;;;;;;;8.18;2.58;;;;;;;;;;5006493;28;25116;-70
2024/03/01 04:01:16;;;;;;;5.15;2.20;;;;;;;;;;5002222;28;25041;-69
2024/03/01 04:03:44;;;;;;;7.78;2.60;;;;;;;;;;4998552;28;25158;-68
2024/03/01 04:06:10;;;;;;;6.32;1.98;;;;;;;;;;4995814;28;25044;-72
2024/03/01 04:08:39;;;;;;;6.38;2.20;;;;;;;;;;5004401;28;25114;-69
2024/03/01 04:11:05;;;;;;;8.75;3.10;;;;;;;;;;5007758;28;25176;-70
2024/03/01 04:13:32;;;;;;;8.00;2.28;;;;;;;;;;5003252;28;25067;-71
2024/03/01 04:15:58;;;;;;;9.23;2.50;;;;;;;;;;4982777;28;25080;-70
2024/03/01 04:18:28;;;;;;;10.05;2.55;;;;;;;;;;4997303;28;25070;-69
2024/03/01 04:20:57;;;;;;;11.73;2.85;;;;;;;;;;5000657;28;25073;-69
2024/03/01 04:23:24;;;;;;;9.10;2.47;;;;;;;;;;4997839;28;25177;-69
2024/03/01 04:25:51;;;;;;;16.60;3.33;;;;;;;;;;5003753;28;25076;-69
2024/03/01 04:28:18;;;;;;;8.68;2.58;;;;;;;;;;5001005;28;25061;-68
2024/03/01 04:30:44;;;;;;;6.28;2.22;;;;;;;;;;5009160;28;25067;-69
2024/03/01 04:33:10;;;;;;;7.93;2.13;;;;;;;;;;4999979;28;25066;-73
2024/03/01 04:35:36;;;;;;;6.18;2.45;;;;;;;;;;5005486;28;25061;-67
2024/03/01 04:38:02;;;;;;;11.20;2.92;;;;;;;;;;4988435;28;25055;-69
2024/03/01 04:40:28;;;;;;;7.63;2.28;;;;;;;;;;5001934;28;25073;-72
2024/03/01 04:42:54;;;;;;;4.95;1.63;;;;;;;;;;5000288;28;25070;-69
2024/03/01 04:45:20;;;;;;;6.22;1.65;;;;;;;;;;5001038;28;25064;-69
2024/03/01 04:47:46;;;;;;;5.20;1.90;;;;;;;;;;5004177;28;25137;-69
2024/03/01 04:50:12;;;;;;;6.70;1.35;;;;;;;;;;5001428;28;25143;-68
2024/03/01 04:52:38;;;;;;;4.82;1.58;;;;;;;;;;5001306;28;25079;-69
2024/03/01 04:55:05;;;;;;;7.57;1.85;;;;;;;;;;5002951;28;25052;-69
2024/03/01 04:57:32;;;;;;;4.18;1.45;;;;;;;;;;4978856;28;25076;-69
2024/03/01 04:59:58;;;;;;;7.20;1.83;;;;;;;;;;5003983;28;25058;-69
2024/03/01 05:02:24;;;;;;;9.10;1.80;;;;;;;;;;5005388;28;25156;-68
2024/03/01 05:04:51;;;;;;;8.02;2.13;;;;;;;;;;5004514;28;25103;-68
2024/03/01 05:07:18;;;;;;;9.85;1.73;;;;;;;;;;4998881;28;25104;-69
2024/03/01 05:09:44;;;;;;;6.55;1.83;;;;;;;;;;4997770;28;25061;-70
2024/03/01 05:12:13;;;;;;;8.20;1.98;;;;;;;;;;5001725;28;25053;-70
2024/03/01 05:14:41;;;;;;;6.85;1.90;;;;;;;;;;4989109;28;25062;-70
2024/03/01 05:17:08;;;;;;;6.80;2.03;;;;;;;;;;5006188;28;25057;-69
2024/03/01 05:19:38;;;;;;;5.18;2.38;;;;;;;;;;5001159;28;25091;-70
2024/03/01 05:22:05;;;;;;;8.90;2.92;;;;;;;;;;5001062;28;25151;-69
2024/03/01 05:24:31;;;;;;;8.27;2.88;;;;;;;;;;4995595;28;25169;-68
2024/03/01 05:26:58;;;;;;;8.30;2.85;;;;;;;;;;5003017;28;25089;-69
2024/03/01 05:29:23;;;;;;;6.10;2.90;;;;;;;;;;5009114;28;25076;-69
2024/03/01 05:31:49;;;;;;;7.80;2.38;;;;;;;;;;5004123;28;25075;-71
2024/03/01 05:34:16;;;;;;;8.82;3.13;;;;;;;;;;4991314;28;25103;-69
2024/03/01 05:36:42;;;;;;;6.95;3.05;;;;;;;;;;5028349;28;25059;-68
2024/03/01 05:39:16;;;;;;;7.65;2.58;;;;;;;;;;5018110;28;25072;-70
2024/03/01 05:41:48;;;;;;;10.25;2.92;;;;;;;;;;5005669;28;25097;-68
2024/03/01 05:44:14;;;;;;;9.07;2.95;;;;;;;;;;5015062;28;25086;-69
2024/03/01 05:46:41;;;;;;;11.02;2.78;;;;;;;;;;5012342;28;25077;-69
2024/03/01 05:49:09;;;;;;;12.85;3.05;;;;;;;;;;4994849;28;25081;-70
2024/03/01 05:51:35;;;;;;;7.38;2.55;;;;;;;;;;5008115;28;25077;-69
2024/03/01 05:54:03;;;;;;;9.70;2.80;;;;;;;;;;5013067;28;25076;-68
2024/03/01 05:56:29;;;;;;;9.18;3.28;;;;;;;;;;5003109;28;25064;-69
2024/03/01 05:58:55;;;;;;;10.02;2.90;;;;;;;;;;5006758;28;25128;-68
2024/03/01 06:01:22;;;;;;;14.15;3.58;;;;;;;;;;5003561;28;25050;-70
2024/03/01 06:03:48;;;;;;;5.90;3.35;;;;;;;;;;4987266;28;25062;-69
2024/03/01 06:06:15;;;;;;;5.40;3.05;;;;;;;;;;5001229;28;25094;-69
2024/03/01 06:08:41;;;;;;;7.90;2.72;;;;;;;;;;4998413;28;25061;-69
2024/03/01 06:11:10;;;;;;;7.00;2.65;;;;;;;;;;4999556;28;25096;-70
2024/03/01 06:13:36;;;;;;;7.88;3.72;;;;;;;;;;4998933;28;25071;-69
2024/03/01 06:16:02;;;;;;;6.70;3.78;;;;;;;;;;5004473;28;25078;-69
2024/03/01 06:18:28;;;;;;;11.00;4.68;;;;;;;;;;4983290;28;25093;-69
2024/03/01 06:20:54;;;;;;;14.20;6.55;;;;;;;;;;4997547;28;25057;-69
2024/03/01 06:23:20;;;;;;;9.15;6.78;;;;;;;;;;5005383;28;25153;-68
2024/03/01 06:25:46;;;;;;;14.13;6.55;;;;;;;;;;5010002;28;25105;-70
2024/03/01 06:28:12;;;;;;;11.20;6.75;;;;;;;;;;5010603;28;25070;-69
2024/03/01 06:30:38;;;;;;;11.38;6.80;;;;;;;;;;5007277;28;25051;-69
2024/03/01 06:33:04;;;;;;;14.07;8.02;;;;;;;;;;5003689;28;25084;-67
2024/03/01 06:35:30;;;;;;;18.05;8.15;;;;;;;;;;5001580;28;25058;-68
2024/03/01 06:37:56;;;;;;;18.10;8.50;;;;;;;;;;4989581;28;25061;-69
2024/03/01 06:40:23;;;;;;;22.50;9.40;;;;;;;;;;5006234;28;25069;-69
2024/03/01 06:42:49;;;;;;;23.38;9.02;;;;;;;;;;4998781;28;25124;-69
2024/03/01 06:45:15;;;;;;;19.77;10.15;;;;;;;;;;5001527;28;25074;-69
2024/03/01 06:47:41;;;;;;;21.92;10.80;;;;;;;;;;5002600;28;25081;-70
2024/03/01 06:50:09;;;;;;;18.20;10.65;;;;;;;;;;5002557;28;25076;-69
2024/03/01 06:52:35;;;;;;;18.92;10.68;;;;;;;;;;5004058;28;25129;-70
2024/03/01 06:55:01;;;;;;;16.80;10.43;;;;;;;;;;5001189;28;25068;-70
2024/03/01 06:57:27;;;;;;;20.38;10.65;;;;;;;;;;4998292;28;25090;-68
2024/03/01 06:59:53;;;;;;;22.48;10.38;;;;;;;;;;5005373;28;25141;-68
2024/03/01 07:02:19;;;;;;;16.10;10.55;;;;;;;;;;4986341;28;25164;-69
2024/03/01 07:04:45;;;;;;;18.92;10.50;;;;;;;;;;4997563;28;25079;-70
2024/03/01 07:07:16;;;;;;;23.00;10.68;;;;;;;;;;4995684;28;25060;-69
2024/03/01 07:09:42;;;;;;;19.60;10.88;;;;;;;;;;4996255;28;25064;-70
2024/03/01 07:12:08;;;;;;;21.30;10.85;;;;;;;;;;4986688;28;25067;-69
2024/03/01 07:14:34;;;;;;;21.10;10.68;;;;;;;;;;4996326;28;25066;-69
2024/03/01 07:17:00;;;;;;;22.60;11.82;;;;;;;;;;5003840;28;25109;-69
2024/03/01 07:19:26;;;;;;;23.60;13.13;;;;;;;;;;4985426;28;25041;-69
2024/03/01 07:21:52;;;;;;;23.00;12.57;;;;;;;;;;5006947;28;25161;-69
2024/03/01 07:24:18;;;;;;;18.27;12.63;;;;;;;;;;5004547;28;25061;-69
2024/03/01 07:26:44;;;;;;;21.73;12.00;;;;;;;;;;5001057;28;25088;-72
2024/03/01 07:29:10;;;;;;;19.25;13.50;;;;;;;;;;5001171;28;25085;-70
2024/03/01 07:31:36;;;;;;;21.73;14.35;;;;;;;;;;5000529;28;25053;-74
2024/03/01 07:34:02;;;;;;;24.48;15.80;;;;;;;;;;4994301;28;25073;-72
2024/03/01 07:36:28;;;;;;;30.88;16.10;;;;;;;;;;4998707;28;25065;-69
2024/03/01 07:38:54;;;;;;;30.25;17.40;;;;;;;;;;4995863;28;25070;-69
2024/03/01 07:41:21;;;;;;;23.13;16.90;;;;;;;;;;5001497;28;25136;-69
2024/03/01 07:43:48;;;;;;;29.25;17.48;;;;;;;;;;5002705;28;25166;-70
2024/03/01 07:46:14;;;;;;;34.90;18.50;;;;;;;;;;5000574;28;25054;-69
2024/03/01 07:48:40;;;;;;;28.02;18.13;;;;;;;;;;4999481;28;25042;-71
2024/03/01 07:51:06;;;;;;;30.30;18.80;;;;;;;;;;4984227;28;25085;-70
2024/03/01 07:53:32;;;;;;;30.98;19.02;;;;;;;;;;5001976;28;25065;-69
2024/03/01 07:55:58;;;;;;;27.30;17.48;;;;;;;;;;5001666;28;25076;-68
2024/03/01 07:58:24;;;;;;;31.23;19.02;;;;;;;;;;5010018;28;25082;-68
2024/03/01 08:00:50;;;;;;;22.75;17.23;;;;;;;;;;5018150;28;25077;-71
2024/03/01 08:03:16;;;;;;;27.17;18.48;;;;;;;;;;5017172;28;25151;-68
2024/03/01 08:05:42;;;;;;;26.55;17.67;;;;;;;;;;5021790;28;25085;-69
2024/03/01 08:08:09;;;;;;;28.15;16.88;;;;;;;;;;5001748;28;25088;-70
2024/03/01 08:10:37;;;;;;;22.45;15.75;;;;;;;;;;4998023;28;25160;-69
2024/03/01 08:13:03;;;;;;;22.20;14.60;;;;;;;;;;5000791;28;25064;-69
2024/03/01 08:15:32;;;;;;;21.35;13.82;;;;;;;;;;5000832;28;25063;-69
2024/03/01 08:17:58;;;;;;;23.08;15.40;;;;;;;;;;5003909;28;25054;-68
2024/03/01 08:20:44;;;;;;;26.88;13.18;;;;;;;;;;5005298;28;25065;-69
2024/03/01 08:23:12;;;;;;;23.35;13.52;;;;;;;;;;4985871;28;25044;-69
2024/03/01 08:25:38;;;;;;;22.10;13.02;;;;;;;;;;4990547;28;25072;-70
2024/03/01 08:28:04;;;;;;;20.92;12.68;;;;;;;;;;5004166;28;25065;-68
2024/03/01 08:30:48;;;;;;;20.90;11.98;;;;;;;;;;5000797;28;25077;-69
2024/03/01 08:33:18;;;;;;;24.70;11.55;;;;;;;;;;5000440;28;25078;-67
2024/03/01 08:35:45;;;;;;;16.85;10.93;;;;;;;;;;5002123;28;25169;-69
2024/03/01 08:38:30;;;;;;;21.60;11.52;;;;;;;;;;4995952;28;25186;-70
2024/03/01 08:40:57;;;;;;;20.02;11.75;;;;;;;;;;4995386;28;25097;-68
2024/03/01 08:43:23;;;;;;;14.35;9.80;;;;;;;;;;4977400;28;25052;-68
2024/03/01 08:45:49;;;;;;;14.63;8.65;;;;;;;;;;5001422;28;25093;-69
2024/03/01 08:48:22;;;;;;;21.40;10.65;;;;;;;;;;5002577;28;25131;-68
2024/03/01 08:50:51;;;;;;;17.58;10.32;;;;;;;;;;5001677;28;25077;-68
2024/03/01 08:53:36;;;;;;;16.65;10.13;;;;;;;;;;4982846;28;25068;-67
2024/03/01 08:56:04;;;;;;;20.73;8.82;;;;;;;;;;4999471;28;25082;-71
2024/03/01 08:58:30;;;;;;;17.73;9.82;;;;;;;;;;4988401;28;25065;-69
2024/03/01 09:00:57;;;;;;;18.85;8.95;;;;;;;;;;4981059;28;25049;-68
2024/03/01 09:03:24;;;;;;;17.80;9.68;;;;;;;;;;4985278;28;25060;-69
2024/03/01 09:05:52;;;;;;;17.42;10.63;;;;;;;;;;4996944;28;25053;-71
2024/03/01 09:08:36;;;;;;;16.48;10.07;;;;;;;;;;5001543;28;24959;-69
2024/03/01 09:11:02;;;;;;;15.02;9.50;;;;;;;;;;4999755;28;25069;-70
2024/03/01 09:13:30;;;;;;;21.90;9.52;;;;;;;;;;4985360;28;25077;-68
2024/03/01 09:15:57;;;;;;;18.05;9.63;;;;;;;;;;5003613;28;25050;-69
2024/03/01 09:18:38;;;;;;;20.63;10.65;;;;;;;;;;4983177;28;25058;-67
2024/03/01 09:21:17;;;;;;;22.90;10.25;;;;;;;;;;4985623;28;25135;-70
2024/03/01 09:23:47;;;;;;;17.80;9.32;;;;;;;;;;4994244;28;24821;-71
2024/03/01 09:26:13;;;;;;;24.10;10.80;;;;;;;;;;4995732;28;25056;-69
2024/03/01 09:28:39;;;;;;;20.40;9.32;;;;;;;;;;4999652;28;25052;-68
2024/03/01 09:31:06;;;;;;;21.48;9.73;;;;;;;;;;4997718;28;25064;-69
2024/03/01 09:33:32;;;;;;;14.45;8.45;;;;;;;;;;4997794;28;25062;-67
2024/03/01 09:35:58;;;;;;;15.52;8.55;;;;;;;;;;4991325;28;25114;-68
2024/03/01 09:38:25;;;;;;;16.45;8.02;;;;;;;;;;5001420;28;25057;-68
2024/03/01 09:40:51;;;;;;;12.70;7.03;;;;;;;;;;4998816;28;25070;-66
2024/03/01 09:43:24;;;;;;;15.48;8.10;;;;;;;;;;4990917;28;25092;-69
2024/03/01 09:45:53;;;;;;;19.90;7.78;;;;;;;;;;4998542;28;25066;-67
2024/03/01 09:48:39;;;;;;;14.13;6.93;;;;;;;;;;4989965;28;25156;-69
2024/03/01 09:51:26;;;;;;;18.10;6.28;;;;;;;;;;4987496;28;25095;-69
2024/03/01 09:54:13;;;;;;;15.40;6.45;;;;;;;;;;4948091;28;25099;-68
2024/03/01 09:56:58;;;;;;;9.15;4.97;;;;;;;;;;4981035;28;25070;-67
2024/03/01 09:59:32;;;;;;;11.52;4.55;;;;;;;;;;4999584;28;25077;-66
2024/03/01 10:02:03;;;;;;;12.85;4.82;;;;;;;;;;5004219;28;25052;-68
2024/03/01 10:04:43;;;;;;;10.23;5.30;;;;;;;;;;4995453;28;25068;-71
2024/03/01 10:07:13;;;;;;;10.32;5.13;;;;;;;;;;5005322;28;25080;-67
2024/03/01 10:09:54;;;;;;;9.73;5.03;;;;;;;;;;5001952;28;25058;-69
2024/03/01 10:12:39;;;;;;;11.45;4.30;;;;;;;;;;4999646;28;25153;-66
2024/03/01 10:15:12;;;;;;;12.60;4.03;;;;;;;;;;4999573;28;25135;-69
2024/03/01 10:17:50;;;;;;;7.32;4.13;;;;;;;;;;4996740;28;25159;-68
2024/03/01 10:20:16;;;;;;;7.95;3.53;;;;;;;;;;5004735;28;25124;-68
2024/03/01 10:22:55;;;;;;;6.78;3.50;;;;;;;;;;5001788;28;25059;-67
2024/03/01 10:25:27;;;;;;;7.18;3.08;;;;;;;;;;5010719;28;25071;-66
2024/03/01 10:27:56;;;;;;;13.02;3.40;;;;;;;;;;5019363;28;25083;-69
2024/03/01 10:30:31;;;;;;;11.25;2.78;;;;;;;;;;5007624;28;25052;-68
2024/03/01 10:33:17;;;;;;;7.22;3.60;;;;;;;;;;5005025;28;25068;-69
2024/03/01 10:36:06;;;;;;;7.80;3.15;;;;;;;;;;5000164;28;25068;-67
2024/03/01 10:38:39;;;;;;;6.60;3.15;;;;;;;;;;4999270;28;25324;-67
2024/03/01 10:41:05;;;;;;;7.32;3.35;;;;;;;;;;5000489;28;25065;-68
2024/03/01 10:43:39;;;;;;;8.00;3.13;;;;;;;;;;4999406;28;25124;-69
2024/03/01 10:46:13;;;;;;;9.00;3.25;;;;;;;;;;5005366;28;25102;-67
2024/03/01 10:48:49;;;;;;;8.40;2.83;;;;;;;;;;4998971;28;25051;-68
2024/03/01 10:51:16;;;;;;;6.88;2.63;;;;;;;;;;5000105;28;25144;-67
2024/03/01 10:53:54;;;;;;;6.13;2.80;;;;;;;;;;4999272;28;25078;-67
2024/03/01 10:56:20;;;;;;;7.93;2.50;;;;;;;;;;4995037;28;25272;-68
2024/03/01 10:58:54;;;;;;;5.22;2.35;;;;;;;;;;5005449;28;25090;-67
2024/03/01 11:01:46;;;;;;;5.88;2.22;;;;;;;;;;5000082;28;25145;-66
2024/03/01 11:04:19;;;;;;;6.15;3.03;;;;;;;;;;4997398;28;25049;-67
2024/03/01 11:06:52;;;;;;;6.47;2.35;;;;;;;;;;5000439;28;25152;-67
2024/03/01 11:09:36;;;;;;;9.30;2.83;;;;;;;;;;4985200;28;25052;-67
2024/03/01 11:12:21;;;;;;;10.30;3.05;;;;;;;;;;4999004;28;25057;-67
2024/03/01 11:14:54;;;;;;;7.72;2.78;;;;;;;;;;5004623;28;25060;-67
2024/03/01 11:17:25;;;;;;;9.45;2.42;;;;;;;;;;5004113;28;25065;-67
2024/03/01 11:19:52;;;;;;;10.98;2.55;;;;;;;;;;4999378;28;25054;-67
2024/03/01 11:22:24;;;;;;;6.55;2.55;;;;;;;;;;5003422;28;25180;-68
2024/03/01 11:25:10;;;;;;;11.52;2.60;;;;;;;;;;4991570;28;25087;-67
2024/03/01 11:27:43;;;;;;;4.30;2.00;;;;;;;;;;4999790;28;25143;-67
2024/03/01 11:30:12;;;;;;;7.80;1.95;;;;;;;;;;5003847;28;25081;-67
2024/03/01 11:32:42;;;;;;;4.30;2.00;;;;;;;;;;5004779;28;25171;-66
2024/03/01 11:35:14;;;;;;;7.72;1.95;;;;;;;;;;5001112;28;25084;-69
2024/03/01 11:37:40;;;;;;;11.70;2.15;;;;;;;;;;4980871;28;25058;-65
2024/03/01 11:40:15;;;;;;;2.88;1.10;;;;;;;;;;4999891;28;25059;-67
2024/03/01 11:42:56;;;;;;;8.82;2.08;;;;;;;;;;4984832;28;25078;-67
2024/03/01 11:45:37;;;;;;;3.17;2.00;;;;;;;;;;4996534;28;25152;-67
2024/03/01 11:48:06;;;;;;;8.27;2.37;;;;;;;;;;4998981;28;25058;-67
2024/03/01 11:50:35;;;;;;;3.92;2.17;;;;;;;;;;5005449;28;25071;-66
2024/03/01 11:53:14;;;;;;;4.13;1.77;;;;;;;;;;4997367;28;25158;-67
2024/03/01 11:55:58;;;;;;;4.75;1.70;;;;;;;;;;4994259;28;25112;-67
2024/03/01 11:58:33;;;;;;;6.90;1.83;;;;;;;;;;4996926;28;25154;-67
2024/03/01 12:01:12;;;;;;;6.55;1.73;;;;;;;;;;4995055;28;25060;-67
2024/03/01 12:03:58;;;;;;;6.40;1.70;;;;;;;;;;5001638;28;25078;-68
2024/03/01 12:06:32;;;;;;;3.67;1.73;;;;;;;;;;5002022;28;25127;-67
2024/03/01 12:09:02;;;;;;;5.93;2.05;;;;;;;;;;5001631;28;25179;-68
2024/03/01 12:11:43;;;;;;;4.60;1.92;;;;;;;;;;4999507;28;25057;-68
2024/03/01 12:14:11;;;;;;;4.60;1.48;;;;;;;;;;4999598;28;25061;-65
2024/03/01 12:16:41;;;;;;;3.22;1.30;;;;;;;;;;5002575;28;25087;-67
2024/03/01 12:19:14;;;;;;;5.18;1.58;;;;;;;;;;4999154;28;25054;-69
2024/03/01 12:21:45;;;;;;;8.50;1.30;;;;;;;;;;5001265;28;25119;-68
2024/03/01 12:24:19;;;;;;;5.10;1.30;;;;;;;;;;4979719;28;25081;-67
2024/03/01 12:26:44;;;;;;;8.57;1.38;;;;;;;;;;4993623;28;25050;-66
2024/03/01 12:29:10;;;;;;;3.97;1.10;;;;;;;;;;4996822;28;25140;-67
2024/03/01 12:31:56;;;;;;;3.97;1.42;;;;;;;;;;5003632;28;25158;-66
2024/03/01 12:34:31;;;;;;;6.88;1.63;;;;;;;;;;4999078;28;25075;-68
2024/03/01 12:37:16;;;;;;;2.92;1.35;;;;;;;;;;5000706;28;25161;-67
2024/03/01 12:39:45;;;;;;;4.38;1.35;;;;;;;;;;5002876;28;25046;-67
2024/03/01 12:42:29;;;;;;;3.70;1.10;;;;;;;;;;5009420;28;25074;-71
2024/03/01 12:45:03;;;;;;;4.70;1.50;;;;;;;;;;5011112;28;25160;-66
2024/03/01 12:47:39;;;;;;;4.22;1.23;;;;;;;;;;5011762;28;25063;-68
2024/03/01 12:50:11;;;;;;;8.15;1.23;;;;;;;;;;5001803;28;25082;-68
2024/03/01 12:52:49;;;;;;;7.25;1.88;;;;;;;;;;5002496;28;25063;-68
2024/03/01 12:55:22;;;;;;;4.00;1.02;;;;;;;;;;4999504;28;25071;-67
2024/03/01 12:58:07;;;;;;;4.43;1.10;;;;;;;;;;4986591;28;25077;-69
2024/03/01 13:00:37;;;;;;;2.13;0.95;;;;;;;;;;5000465;28;25141;-68
2024/03/01 13:03:11;;;;;;;2.55;1.15;;;;;;;;;;5000525;28;25065;-67
2024/03/01 13:05:38;;;;;;;11.25;1.33;;;;;;;;;;4997139;28;25050;-66
2024/03/01 13:08:10;;;;;;;8.07;1.70;;;;;;;;;;4995381;28;25134;-68
2024/03/01 13:10:36;;;;;;;11.00;1.55;;;;;;;;;;5002450;28;25087;-70
2024/03/01 13:13:06;;;;;;;8.65;1.15;;;;;;;;;;4998277;28;25053;-68
2024/03/01 13:15:41;;;;;;;8.38;1.50;;;;;;;;;;5002297;28;25089;-68
2024/03/01 13:18:12;;;;;;;3.50;1.42;;;;;;;;;;5000433;28;25061;-69
2024/03/01 13:20:46;;;;;;;4.20;1.20;;;;;;;;;;5002619;28;25057;-70
2024/03/01 13:23:29;;;;;;;6.63;1.30;;;;;;;;;;4995915;28;25062;-68
2024/03/01 13:26:07;;;;;;;3.20;1.38;;;;;;;;;;5003926;28;25167;-69
2024/03/01 13:28:34;;;;;;;5.78;1.70;;;;;;;;;;5000990;28;25140;-68
2024/03/01 13:31:08;;;;;;;3.90;1.17;;;;;;;;;;4999462;28;25068;-65
2024/03/01 13:33:34;;;;;;;2.75;1.25;;;;;;;;;;4997752;28;25128;-68
2024/03/01 13:36:10;;;;;;;7.45;1.95;;;;;;;;;;4997320;28;25066;-67
2024/03/01 13:38:43;;;;;;;3.92;1.20;;;;;;;;;;4983575;28;25083;-69
2024/03/01 13:41:17;;;;;;;5.13;1.40;;;;;;;;;;4999341;28;25062;-67
2024/03/01 13:43:45;;;;;;;4.00;1.35;;;;;;;;;;4996708;28;25138;-67
2024/03/01 13:46:15;;;;;;;2.88;1.30;;;;;;;;;;4995891;28;25063;-67
2024/03/01 13:48:43;;;;;;;6.22;1.40;;;;;;;;;;4993732;28;25179;-67
2024/03/01 13:51:09;;;;;;;5.57;1.42;;;;;;;;;;4992788;28;25118;-68
2024/03/01 13:53:35;;;;;;;1.90;1.40;;;;;;;;;;5000990;28;25083;-70
2024/03/01 13:56:03;;;;;;;5.28;1.60;;;;;;;;;;4999930;28;25068;-69
2024/03/01 13:58:34;;;;;;;7.78;1.70;;;;;;;;;;5001106;28;25079;-69
2024/03/01 14:01:03;;;;;;;3.92;1.55;;;;;;;;;;4995842;28;25067;-68
2024/03/01 14:03:30;;;;;;;3.17;1.30;;;;;;;;;;4999734;28;25068;-69
2024/03/01 14:05:57;;;;;;;2.72;1.40;;;;;;;;;;4997560;28;25053;-66
2024/03/01 14:08:24;;;;;;;4.65;1.50;;;;;;;;;;4981594;28;25080;-70
2024/03/01 14:10:55;;;;;;;3.28;1.55;;;;;;;;;;5000737;28;25123;-69
2024/03/01 14:13:26;;;;;;;5.90;1.98;;;;;;;;;;4996977;28;25109;-69
2024/03/01 14:16:10;;;;;;;3.47;1.73;;;;;;;;;;4982132;28;25067;-68
2024/03/01 14:18:36;;;;;;;2.25;1.50;;;;;;;;;;4982216;28;25061;-69
2024/03/01 14:21:03;;;;;;;4.07;1.50;;;;;;;;;;4996334;28;25081;-68
2024/03/01 14:23:29;;;;;;;5.75;1.83;;;;;;;;;;4997559;28;25054;-68
2024/03/01 14:25:55;;;;;;;6.60;1.98;;;;;;;;;;4995577;28;25078;-68
2024/03/01 14:28:21;;;;;;;5.90;1.65;;;;;;;;;;4980742;28;25120;-68
2024/03/01 14:30:48;;;;;;;3.47;1.60;;;;;;;;;;4972150;28;25086;-67
2024/03/01 14:33:14;;;;;;;4.20;1.52;;;;;;;;;;4997217;28;25047;-69
2024/03/01 14:35:41;;;;;;;3.40;1.50;;;;;;;;;;4997126;28;25122;-67
2024/03/01 14:38:20;;;;;;;5.53;1.40;;;;;;;;;;5003135;28;25082;-68
2024/03/01 14:40:56;;;;;;;7.20;1.90;;;;;;;;;;4996984;28;25145;-67
2024/03/01 14:43:22;;;;;;;4.78;1.40;;;;;;;;;;4999662;28;25047;-68
2024/03/01 14:45:52;;;;;;;3.00;1.17;;;;;;;;;;5004065;28;25064;-67
2024/03/01 14:48:28;;;;;;;5.88;1.40;;;;;;;;;;4999088;28;25056;-67